Central'Nyj Rudnik, Russia
Current Conditions -  °F | °C
As of 7:00 PM on Saturday 25 Oct 2014 (Local Time) from UNEE Reporting Station
Overcast Overcast  
Wind Chill: 27°   Ceiling: 3200
Heat Index: 36°   Visibility: 6mi
Dew Point: 36°   Wind: 13mph
Humidity: 100%   Direction: 270°W
Pressure: 29.77"   Gusts: NA
Location:  55.22°N, 87.65°E
Report Text: UNEE 251200Z 27006MPS 9999 BKN032CB OVC066 02/02 Q1008 NOSIGRMK QFE733 23290050
Loading
Personal Weather Stations






























Interactive Weather Map
Tropical Storm Tracking
New forecast layout! Learn more

10-Day Weather Forecast

Advertisements
Track Severe Weather on mobile